Terminal Aerodrome Forecast
Issued by NWS Des Moines, IA

Home | Current Version | Previous Version | Text Only | Print | Product List | Glossary On
Versions: 1 2 3 4 5 6 7 8 9 10 11 12 13 14 15 16 17 18 19 20 21 22 23 24 25 26
000
FTUS43 KDMX 282335
TAFDSM
TAF
KDSM 282335Z 2900/2924 29012KT 3SM -RA BR OVC008
     FM290100 33006KT P6SM SCT008 OVC015
     FM291500 05009KT P6SM BKN015
     FM292100 08010KT P6SM BKN035=

USA.gov is the U.S. government's official web portal to all federal, state and local government web resources and services.